createdAt,value
2019-01-26T00:00:42.760Z,51.30
2019-01-26T00:03:12.246Z,51.70
2019-01-26T00:05:44.876Z,47.78
2019-01-26T00:08:16.046Z,51.92
2019-01-26T00:13:41.801Z,51.63
2019-01-26T00:16:20.997Z,52.60
2019-01-26T00:18:51.576Z,51.65
2019-01-26T00:21:22.826Z,50.33
2019-01-26T00:23:55.472Z,49.15
2019-01-26T00:26:27.925Z,53.40
2019-01-26T00:28:57.206Z,50.80
2019-01-26T00:31:28.673Z,49.73
2019-01-26T00:33:59.373Z,48.95
2019-01-26T00:36:31.345Z,50.63
2019-01-26T00:39:04.749Z,48.50
2019-01-26T00:41:40.045Z,49.35
2019-01-26T00:44:12.626Z,50.17
2019-01-26T00:46:42.295Z,51.77
2019-01-26T00:49:13.273Z,48.73
2019-01-26T00:51:50.762Z,50.10
2019-01-26T00:54:23.862Z,47.30
2019-01-26T00:56:58.306Z,51.05
2019-01-26T00:59:28.754Z,48.50
2019-01-26T01:01:58.071Z,51.68
2019-01-26T01:04:29.242Z,51.28
2019-01-26T01:07:04.743Z,52.90
2019-01-26T01:09:35.192Z,54.75
2019-01-26T01:12:07.263Z,51.68
2019-01-26T01:14:39.401Z,54.73
2019-01-26T01:17:11.415Z,51.80
2019-01-26T01:19:51.590Z,55.10
2019-01-26T01:22:23.558Z,51.37
2019-01-26T01:27:57.574Z,56.33
2019-01-26T01:30:22.268Z,55.05
2019-01-26T01:32:53.226Z,59.55
2019-01-26T01:35:27.297Z,55.05
2019-01-26T01:38:00.288Z,57.20
2019-01-26T01:40:32.138Z,57.62
2019-01-26T01:43:02.910Z,54.93
2019-01-26T01:45:37.426Z,58.85
2019-01-26T01:48:07.817Z,60.95
2019-01-26T01:50:37.307Z,55.25
2019-01-26T01:53:11.170Z,60.17
2019-01-26T01:55:40.591Z,58.13
2019-01-26T01:58:12.157Z,60.65
2019-01-26T02:00:47.013Z,58.65
2019-01-26T02:03:21.698Z,62.38
2019-01-26T02:05:51.223Z,60.60
2019-01-26T02:08:20.536Z,56.95
2019-01-26T02:10:49.828Z,60.80
2019-01-26T02:13:22.022Z,59.67
2019-01-26T02:15:53.397Z,62.00
2019-01-26T02:18:22.891Z,63.68
2019-01-26T02:20:52.279Z,67.27
2019-01-26T02:23:29.577Z,74.05
2019-01-26T02:25:59.120Z,65.57
2019-01-26T02:28:30.485Z,71.05
2019-01-26T02:31:03.086Z,76.20
2019-01-26T02:33:32.361Z,79.25
2019-01-26T02:36:01.898Z,73.97
2019-01-26T02:38:34.860Z,67.32
2019-01-26T02:41:04.264Z,65.83
2019-01-26T02:43:33.746Z,67.80
2019-01-26T02:46:04.065Z,68.70
2019-01-26T02:48:33.534Z,64.62
2019-01-26T02:51:02.945Z,61.45
2019-01-26T02:53:32.306Z,69.58
2019-01-26T02:56:02.175Z,70.90
2019-01-26T02:58:32.459Z,70.92
2019-01-26T03:01:01.751Z,69.17
2019-01-26T03:03:35.385Z,65.65
2019-01-26T03:06:04.825Z,70.20
2019-01-26T03:08:35.183Z,66.60
2019-01-26T03:11:04.479Z,71.17
2019-01-26T03:13:33.835Z,72.90
2019-01-26T03:16:03.200Z,70.08
2019-01-26T03:18:32.493Z,65.42
2019-01-26T03:21:06.242Z,72.55
2019-01-26T03:23:35.735Z,69.92
2019-01-26T03:26:05.330Z,72.42
2019-01-26T03:28:34.715Z,63.50
2019-01-26T03:31:05.730Z,67.50
2019-01-26T03:33:36.050Z,70.75
2019-01-26T03:36:05.299Z,68.87
2019-01-26T03:38:34.610Z,65.28
2019-01-26T03:41:05.114Z,67.40
2019-01-26T03:43:35.590Z,65.42
2019-01-26T03:46:05.025Z,69.62
2019-01-26T03:48:34.619Z,68.30
2019-01-26T03:51:04.050Z,68.40
2019-01-26T03:53:33.355Z,68.67
2019-01-26T03:56:02.640Z,66.17
2019-01-26T03:58:33.123Z,64.32
2019-01-26T04:01:02.496Z,68.05
2019-01-26T04:03:31.774Z,63.38
2019-01-26T04:06:01.084Z,64.25
2019-01-26T04:08:30.366Z,59.90
2019-01-26T04:10:59.697Z,62.60
2019-01-26T04:13:28.992Z,62.78
2019-01-26T04:15:58.378Z,61.65
2019-01-26T04:18:27.802Z,65.42
2019-01-26T04:20:57.117Z,58.00
2019-01-26T04:23:26.421Z,61.65
2019-01-26T04:25:55.714Z,64.87
2019-01-26T04:28:24.986Z,65.85
2019-01-26T04:30:54.290Z,57.55
2019-01-26T04:33:23.810Z,57.98
2019-01-26T04:35:53.110Z,59.93
2019-01-26T04:38:22.518Z,60.55
2019-01-26T04:40:51.818Z,58.08
2019-01-26T04:43:21.122Z,65.72
2019-01-26T04:45:50.415Z,58.20
2019-01-26T04:48:19.775Z,62.93
2019-01-26T04:50:50.140Z,59.40
2019-01-26T04:53:19.731Z,57.55
2019-01-26T04:55:49.193Z,57.05
2019-01-26T04:58:18.594Z,56.02
2019-01-26T05:00:47.962Z,55.23
2019-01-26T05:03:17.366Z,59.73
2019-01-26T05:05:46.742Z,54.20
2019-01-26T05:08:16.054Z,59.88
2019-01-26T05:10:45.376Z,60.33
2019-01-26T05:13:14.734Z,61.20
2019-01-26T05:15:44.074Z,60.73
2019-01-26T05:18:13.370Z,59.95
2019-01-26T05:20:42.698Z,59.27
2019-01-26T05:23:11.974Z,55.48
2019-01-26T05:25:41.286Z,57.17
2019-01-26T05:28:14.963Z,60.12
2019-01-26T05:30:44.286Z,63.95
2019-01-26T05:33:13.654Z,60.70
2019-01-26T05:35:42.999Z,58.42
2019-01-26T05:38:12.307Z,60.55
2019-01-26T05:40:41.959Z,58.58
2019-01-26T05:43:12.230Z,54.33
2019-01-26T05:45:41.558Z,63.50
2019-01-26T05:48:10.891Z,58.73
2019-01-26T05:50:40.194Z,57.73
2019-01-26T05:53:10.573Z,66.85
2019-01-26T05:55:39.891Z,62.95
2019-01-26T05:58:10.380Z,60.65
2019-01-26T06:00:39.690Z,67.70
2019-01-26T06:03:08.982Z,67.78
2019-01-26T06:05:38.286Z,67.00
2019-01-26T06:08:12.156Z,64.35
2019-01-26T06:10:44.464Z,63.58
2019-01-26T06:13:33.153Z,61.98
2019-01-26T06:16:02.661Z,70.75
2019-01-26T06:18:34.449Z,77.82
2019-01-26T06:21:03.975Z,67.12
2019-01-26T06:23:33.860Z,60.50
2019-01-26T06:26:06.128Z,60.90
2019-01-26T06:28:35.604Z,67.05
2019-01-26T06:31:08.982Z,67.53
2019-01-26T06:33:38.481Z,67.58
2019-01-26T06:36:07.792Z,67.50
2019-01-26T06:38:37.197Z,64.95
2019-01-26T06:41:06.494Z,60.25
2019-01-26T06:43:38.540Z,62.38
2019-01-26T06:46:07.878Z,65.35
2019-01-26T06:48:37.275Z,62.80
2019-01-26T06:51:06.650Z,63.92
2019-01-26T06:53:36.059Z,65.70
2019-01-26T06:56:05.283Z,65.20
2019-01-26T06:58:34.666Z,61.92
2019-01-26T07:01:03.991Z,65.90
2019-01-26T07:03:33.419Z,68.40
2019-01-26T07:06:11.264Z,67.22
2019-01-26T07:08:40.569Z,68.52
2019-01-26T07:11:10.046Z,64.55
2019-01-26T07:13:39.325Z,63.98
2019-01-26T07:16:11.037Z,62.88
2019-01-26T07:18:40.385Z,67.37
2019-01-26T07:21:10.038Z,64.70
2019-01-26T07:23:39.345Z,62.50
2019-01-26T07:26:11.795Z,63.23
2019-01-26T07:28:41.446Z,65.83
2019-01-26T07:31:40.366Z,60.55
2019-01-26T07:34:09.730Z,58.83
2019-01-26T07:36:38.954Z,60.45
2019-01-26T07:39:09.972Z,62.40
2019-01-26T07:41:39.285Z,59.13
2019-01-26T07:44:08.549Z,60.23
2019-01-26T07:46:37.909Z,62.55
2019-01-26T07:49:07.256Z,59.50
2019-01-26T07:51:36.674Z,59.33
2019-01-26T07:54:06.185Z,54.27
2019-01-26T07:56:35.928Z,54.83
2019-01-26T07:59:05.354Z,52.90
2019-01-26T08:01:34.645Z,51.98
2019-01-26T08:04:04.106Z,48.63
2019-01-26T08:06:33.478Z,47.70
2019-01-26T08:09:04.563Z,46.45
2019-01-26T08:11:33.951Z,48.25
2019-01-26T08:14:03.306Z,44.40
2019-01-26T08:16:32.659Z,44.60
2019-01-26T08:19:02.127Z,44.08
2019-01-26T08:21:31.466Z,40.52
2019-01-26T08:24:00.822Z,40.33
2019-01-26T08:26:30.121Z,40.35
2019-01-26T08:28:59.473Z,38.08
2019-01-26T08:31:28.891Z,40.43
2019-01-26T08:33:58.294Z,35.55
2019-01-26T08:36:27.635Z,38.78
2019-01-26T08:38:56.998Z,36.80
2019-01-26T08:41:26.246Z,34.33
2019-01-26T08:43:55.646Z,37.03
2019-01-26T08:46:24.984Z,33.42
2019-01-26T08:48:54.534Z,33.48
2019-01-26T08:51:24.059Z,31.55
2019-01-26T08:53:53.462Z,29.90
2019-01-26T08:56:22.859Z,31.60
2019-01-26T08:58:52.194Z,27.62
2019-01-26T09:01:21.639Z,27.15
2019-01-26T09:03:59.537Z,28.92
2019-01-26T09:06:47.957Z,25.62
2019-01-26T09:09:17.326Z,25.88
2019-01-26T09:11:47.626Z,23.90
2019-01-26T09:14:17.152Z,25.27
2019-01-26T09:16:46.410Z,26.05
2019-01-26T09:19:15.739Z,28.65
2019-01-26T09:21:45.058Z,25.10
2019-01-26T09:24:14.350Z,25.55
2019-01-26T09:26:43.648Z,26.40
2019-01-26T09:29:12.945Z,26.93
2019-01-26T09:31:42.622Z,25.08
2019-01-26T09:34:11.960Z,23.05
2019-01-26T09:36:41.342Z,23.98
2019-01-26T09:39:11.689Z,24.80
2019-01-26T09:41:40.994Z,24.32
2019-01-26T09:44:10.764Z,23.45
2019-01-26T09:46:40.270Z,23.18
2019-01-26T09:49:09.691Z,19.50
2019-01-26T09:51:38.998Z,24.90
2019-01-26T09:54:08.419Z,20.25
2019-01-26T09:56:37.696Z,24.00
2019-01-26T09:59:07.074Z,22.27
2019-01-26T10:01:36.422Z,21.42
2019-01-26T10:04:06.178Z,19.12
2019-01-26T10:06:35.534Z,20.00
2019-01-26T10:09:09.754Z,19.48
2019-01-26T10:11:39.082Z,20.02
2019-01-26T10:14:08.431Z,20.90
2019-01-26T10:16:38.028Z,21.77
2019-01-26T10:19:07.376Z,18.25
2019-01-26T10:21:36.638Z,17.48
2019-01-26T10:24:05.979Z,16.85
2019-01-26T10:26:35.387Z,14.63
2019-01-26T10:29:04.650Z,15.43
2019-01-26T10:31:33.937Z,16.85
2019-01-26T10:34:03.440Z,15.20
2019-01-26T10:36:53.872Z,14.90
2019-01-26T10:39:23.210Z,13.85
2019-01-26T10:42:03.838Z,13.43
2019-01-26T10:44:34.166Z,14.20
2019-01-26T10:47:03.442Z,11.57
2019-01-26T10:49:32.709Z,12.40
2019-01-26T10:52:02.586Z,13.43
2019-01-26T10:54:31.853Z,11.78
2019-01-26T10:57:01.308Z,11.22
2019-01-26T10:59:30.588Z,11.20
2019-01-26T11:02:00.174Z,10.75
2019-01-26T11:04:29.674Z,9.35
2019-01-26T11:06:59.010Z,9.10
2019-01-26T11:09:28.271Z,9.25
2019-01-26T11:11:57.678Z,9.95
2019-01-26T11:14:27.219Z,8.45
2019-01-26T11:16:56.543Z,9.10
2019-01-26T11:19:26.050Z,9.10
2019-01-26T11:21:55.359Z,9.05
2019-01-26T11:24:24.689Z,9.43
2019-01-26T11:26:54.018Z,10.00
2019-01-26T11:29:24.150Z,9.40
2019-01-26T11:31:53.549Z,8.70
2019-01-26T11:34:22.854Z,9.50
2019-01-26T11:36:52.209Z,9.80
2019-01-26T11:39:21.557Z,10.10
2019-01-26T11:41:51.106Z,8.95
2019-01-26T11:44:20.462Z,8.05
2019-01-26T11:46:55.954Z,8.48
2019-01-26T11:49:25.353Z,8.48
2019-01-26T11:52:12.045Z,9.80
2019-01-26T11:55:13.393Z,9.40
2019-01-26T11:57:42.661Z,9.73
2019-01-26T12:00:46.514Z,9.78
2019-01-26T12:03:31.545Z,9.53
2019-01-26T12:06:06.072Z,10.18
2019-01-26T12:08:35.614Z,9.68
2019-01-26T12:11:05.058Z,10.10
2019-01-26T12:13:34.383Z,8.68
2019-01-26T12:16:03.646Z,8.13
2019-01-26T12:18:33.001Z,7.67
2019-01-26T12:21:02.474Z,7.80
2019-01-26T12:23:31.745Z,7.15
2019-01-26T12:26:01.108Z,6.65
2019-01-26T12:28:30.863Z,7.12
2019-01-26T12:31:00.498Z,5.90
2019-01-26T12:33:29.955Z,7.05
2019-01-26T12:35:59.302Z,5.17
2019-01-26T12:38:29.025Z,5.78
2019-01-26T12:40:58.343Z,5.50
2019-01-26T12:43:27.777Z,5.65
2019-01-26T12:45:57.130Z,5.78
2019-01-26T12:48:26.958Z,5.40
2019-01-26T12:50:56.315Z,5.70
2019-01-26T12:53:25.630Z,6.20
2019-01-26T12:55:55.372Z,5.60
2019-01-26T12:58:24.618Z,6.83
2019-01-26T13:00:53.967Z,6.55
2019-01-26T13:03:23.346Z,5.83
2019-01-26T13:05:53.934Z,6.33
2019-01-26T13:08:24.538Z,7.05
2019-01-26T13:13:20.198Z,6.37
2019-01-26T13:15:49.806Z,6.92
2019-01-26T13:18:19.253Z,7.25
2019-01-26T13:20:48.770Z,8.35
2019-01-26T13:23:18.412Z,8.35
2019-01-26T13:25:47.827Z,8.60
2019-01-26T13:28:17.140Z,9.30
2019-01-26T13:30:46.568Z,8.75
2019-01-26T13:33:15.884Z,8.88
2019-01-26T13:35:45.230Z,9.20
2019-01-26T13:38:14.715Z,9.75
2019-01-26T13:40:44.036Z,10.43
2019-01-26T13:43:13.410Z,9.23
2019-01-26T13:45:42.898Z,10.08
2019-01-26T13:48:12.406Z,10.23
2019-01-26T13:50:41.706Z,10.48
2019-01-26T13:53:11.203Z,11.70
2019-01-26T13:55:40.493Z,11.43
2019-01-26T13:58:10.160Z,12.70
2019-01-26T14:00:39.467Z,12.30
2019-01-26T14:03:08.949Z,11.25
2019-01-26T14:05:41.347Z,13.85
2019-01-26T14:08:10.692Z,14.85
2019-01-26T14:10:40.271Z,14.15
2019-01-26T14:13:09.710Z,13.72
2019-01-26T14:15:39.152Z,13.80
2019-01-26T14:18:08.518Z,13.83
2019-01-26T14:20:37.934Z,13.98
2019-01-26T14:23:07.514Z,14.33
2019-01-26T14:25:36.958Z,14.83
2019-01-26T14:28:06.508Z,14.47
2019-01-26T14:30:53.065Z,13.08
2019-01-26T14:33:23.723Z,15.30
2019-01-26T14:35:53.167Z,13.58
2019-01-26T14:38:23.071Z,14.28
2019-01-26T14:40:52.475Z,15.15
2019-01-26T14:43:24.197Z,13.93
2019-01-26T14:45:53.447Z,14.35
2019-01-26T14:48:23.522Z,13.90
2019-01-26T14:50:57.282Z,15.20
2019-01-26T14:53:32.354Z,13.90
2019-01-26T14:56:03.230Z,14.20
2019-01-26T14:58:36.686Z,13.25
2019-01-26T15:01:12.126Z,13.62
2019-01-26T15:03:45.874Z,13.80
2019-01-26T15:06:21.311Z,12.28
2019-01-26T15:16:21.869Z,10.10
2019-01-26T15:18:55.842Z,11.40
2019-01-26T15:21:42.060Z,10.90
2019-01-26T15:24:26.160Z,11.60
2019-01-26T15:27:09.447Z,11.53
2019-01-26T15:29:58.210Z,10.25
2019-01-26T15:32:41.437Z,9.53
2019-01-26T15:35:20.079Z,10.68
2019-01-26T15:38:08.404Z,9.60
2019-01-26T15:40:45.592Z,9.58
2019-01-26T15:43:38.380Z,8.93
2019-01-26T15:46:18.539Z,9.85
2019-01-26T15:52:07.774Z,9.65
2019-01-26T15:55:29.426Z,9.80
2019-01-26T16:02:24.802Z,10.90
2019-01-26T16:14:14.215Z,12.40
2019-01-26T16:17:35.634Z,10.95
2019-01-26T16:20:06.246Z,13.30
2019-01-26T16:22:39.035Z,12.75
2019-01-26T16:25:09.246Z,14.25
2019-01-26T16:27:39.794Z,13.28
2019-01-26T16:30:13.029Z,12.10
2019-01-26T16:33:22.503Z,12.15
2019-01-26T16:36:59.006Z,10.43
2019-01-26T16:39:33.039Z,9.10
2019-01-26T16:42:03.553Z,9.70
2019-01-26T16:44:34.327Z,8.10
2019-01-26T16:47:06.245Z,9.43
2019-01-26T16:49:44.930Z,6.10
2019-01-26T16:52:16.273Z,7.80
2019-01-26T16:54:45.508Z,7.72
2019-01-26T16:57:21.029Z,6.85
2019-01-26T16:59:52.529Z,7.08
2019-01-26T17:02:23.008Z,7.45
2019-01-26T17:04:52.479Z,7.28
2019-01-26T17:07:21.799Z,7.80
2019-01-26T17:09:51.248Z,7.45
2019-01-26T17:12:21.930Z,7.10
2019-01-26T17:14:53.753Z,6.65
2019-01-26T17:17:23.110Z,7.25
2019-01-26T17:19:52.614Z,8.45
2019-01-26T17:22:21.905Z,8.05
2019-01-26T17:24:53.274Z,7.70
2019-01-26T17:27:24.743Z,9.75
2019-01-26T17:29:55.310Z,9.10
2019-01-26T17:32:27.317Z,8.90
2019-01-26T17:34:56.742Z,9.53
2019-01-26T17:37:28.263Z,10.00
2019-01-26T17:40:04.297Z,10.15
2019-01-26T17:42:43.018Z,10.08
2019-01-26T17:45:13.754Z,11.00
2019-01-26T17:47:43.146Z,9.78
2019-01-26T17:50:16.468Z,10.63
2019-01-26T17:52:47.291Z,9.95
2019-01-26T17:55:17.224Z,9.68
2019-01-26T17:57:46.554Z,10.48
2019-01-26T18:01:05.704Z,10.20
2019-01-26T18:03:37.099Z,9.15
2019-01-26T18:06:08.662Z,8.48
2019-01-26T18:08:37.986Z,9.48
2019-01-26T18:11:36.859Z,7.92
2019-01-26T18:14:08.718Z,8.10
2019-01-26T18:16:38.046Z,8.43
2019-01-26T18:19:07.466Z,7.10
2019-01-26T18:21:36.861Z,8.33
2019-01-26T18:24:06.250Z,8.43
2019-01-26T18:26:35.778Z,7.97
2019-01-26T18:29:05.171Z,8.25
2019-01-26T18:31:34.586Z,7.40
2019-01-26T18:34:03.955Z,7.10
2019-01-26T18:36:33.219Z,7.60
2019-01-26T18:39:02.637Z,7.08
2019-01-26T18:41:31.934Z,6.60
2019-01-26T18:44:01.305Z,6.45
2019-01-26T18:46:30.998Z,6.35
2019-01-26T18:49:00.454Z,5.58
2019-01-26T18:51:30.015Z,5.60
2019-01-26T18:53:59.467Z,4.97
2019-01-26T18:56:28.953Z,4.60
2019-01-26T18:58:58.362Z,4.37
2019-01-26T19:01:27.737Z,4.33
2019-01-26T19:04:19.065Z,4.85
2019-01-26T19:06:48.598Z,4.28
2019-01-26T19:09:18.066Z,4.60
2019-01-26T19:11:47.320Z,4.30
2019-01-26T19:14:16.581Z,4.50
2019-01-26T19:16:45.917Z,3.58
2019-01-26T19:19:16.866Z,4.20
2019-01-26T19:21:46.169Z,4.22
2019-01-26T19:24:15.425Z,4.40
2019-01-26T19:26:44.775Z,4.28
2019-01-26T19:29:15.180Z,4.35
2019-01-26T19:31:44.472Z,4.67
2019-01-26T19:34:13.780Z,4.90
2019-01-26T19:36:43.071Z,4.35
2019-01-26T19:39:12.611Z,4.87
2019-01-26T19:41:41.998Z,4.28
2019-01-26T19:44:11.304Z,5.40
2019-01-26T19:46:40.560Z,5.67
2019-01-26T19:49:14.672Z,5.25
2019-01-26T19:51:44.079Z,4.97
2019-01-26T19:54:13.434Z,5.03
2019-01-26T19:56:42.815Z,5.05
2019-01-26T19:59:12.181Z,4.70
2019-01-26T20:01:43.780Z,4.78
2019-01-26T20:04:15.492Z,5.12
2019-01-26T20:06:44.846Z,4.72
2019-01-26T20:09:14.983Z,4.37
2019-01-26T20:11:44.262Z,5.00
2019-01-26T20:14:13.803Z,5.00
2019-01-26T20:16:43.258Z,5.08
2019-01-26T20:19:12.601Z,5.80
2019-01-26T20:21:42.091Z,4.62
2019-01-26T20:24:11.505Z,4.97
2019-01-26T20:26:40.899Z,5.28
2019-01-26T20:29:10.351Z,4.90
2019-01-26T20:31:39.688Z,4.72
2019-01-26T20:34:09.020Z,5.10
2019-01-26T20:36:38.433Z,4.97
2019-01-26T20:39:09.607Z,5.20
2019-01-26T20:41:38.947Z,5.22
2019-01-26T20:44:08.253Z,5.20
2019-01-26T20:46:37.703Z,6.10
2019-01-26T20:49:10.843Z,5.85
2019-01-26T20:51:50.331Z,6.05
2019-01-26T20:54:39.965Z,6.72
2019-01-26T20:57:10.214Z,6.40
2019-01-26T21:00:22.889Z,7.20
2019-01-26T21:02:59.337Z,6.17
2019-01-26T21:05:33.540Z,7.67
2019-01-26T21:08:10.523Z,6.22
2019-01-26T21:10:43.636Z,6.72
2019-01-26T21:13:18.139Z,6.17
2019-01-26T21:15:49.741Z,6.37
2019-01-26T21:18:19.777Z,7.17
2019-01-26T21:20:49.142Z,6.17
2019-01-26T21:23:18.448Z,6.33
2019-01-26T21:25:50.133Z,7.00
2019-01-26T21:28:19.506Z,7.58
2019-01-26T21:30:48.938Z,6.72
2019-01-26T21:33:19.211Z,7.00
2019-01-26T21:35:52.267Z,7.00
2019-01-26T21:38:21.608Z,7.10
2019-01-26T21:40:51.481Z,7.12
2019-01-26T21:43:20.883Z,6.85
2019-01-26T21:45:53.448Z,6.20
2019-01-26T21:48:26.861Z,6.58
2019-01-26T21:51:00.765Z,5.85
2019-01-26T21:53:30.214Z,5.70
2019-01-26T21:56:02.640Z,6.03
2019-01-26T21:58:38.910Z,5.28
2019-01-26T22:01:16.077Z,6.00
2019-01-26T22:03:48.711Z,5.20
2019-01-26T22:06:21.050Z,5.65
2019-01-26T22:08:58.800Z,4.97
2019-01-26T22:11:29.429Z,4.65
2019-01-26T22:13:58.885Z,4.60
2019-01-26T22:16:29.858Z,5.08
2019-01-26T22:19:01.562Z,4.90
2019-01-26T22:21:34.230Z,5.40
2019-01-26T22:24:04.018Z,5.65
2019-01-26T22:26:33.321Z,6.12
2019-01-26T22:29:02.575Z,5.85
2019-01-26T22:31:32.051Z,7.05
2019-01-26T22:34:04.717Z,6.17
2019-01-26T22:36:34.076Z,8.05
2019-01-26T22:39:08.420Z,8.60
2019-01-26T22:41:37.731Z,8.50
2019-01-26T22:44:08.697Z,8.30
2019-01-26T22:46:38.183Z,9.13
2019-01-26T22:49:13.623Z,8.65
2019-01-26T22:51:53.382Z,9.28
2019-01-26T22:54:27.050Z,10.38
2019-01-26T22:57:12.842Z,10.88
2019-01-26T22:59:49.325Z,10.63
2019-01-26T23:02:48.269Z,12.45
2019-01-26T23:06:19.842Z,10.40
2019-01-26T23:08:53.003Z,11.18
2019-01-26T23:11:49.995Z,10.10
2019-01-26T23:14:45.937Z,9.83
2019-01-26T23:17:55.039Z,9.98
2019-01-26T23:20:41.354Z,9.18
2019-01-26T23:23:37.490Z,9.15
2019-01-26T23:26:56.887Z,8.55
2019-01-26T23:30:20.483Z,7.65
2019-01-26T23:32:49.924Z,8.78
2019-01-26T23:35:19.242Z,7.37
2019-01-26T23:37:48.607Z,7.85
2019-01-26T23:40:18.914Z,6.70
2019-01-26T23:42:48.439Z,6.70
2019-01-26T23:45:17.794Z,5.78
2019-01-26T23:47:47.178Z,6.58
2019-01-26T23:50:16.459Z,6.70
2019-01-26T23:52:46.078Z,5.90
2019-01-26T23:55:15.610Z,5.80
2019-01-26T23:57:49.707Z,4.78
